createdAt,value
2018-02-25T08:21:55.420Z,1024.8
2018-02-25T08:22:56.836Z,1024.6
2018-02-25T08:24:18.780Z,1024.7
2018-02-25T08:25:20.178Z,1024.7
2018-02-25T08:26:42.157Z,1024.8
2018-02-25T08:27:43.551Z,1024.8
2018-02-25T08:29:05.500Z,1024.8
2018-02-25T08:30:06.900Z,1024.8
2018-02-25T08:31:08.560Z,1024.7
2018-02-25T08:32:09.965Z,1024.8
2018-02-25T08:33:11.366Z,1024.9
2018-02-25T08:34:12.880Z,1024.9
2018-02-25T08:35:14.287Z,1024.8
2018-02-25T08:36:15.688Z,1024.8
2018-02-25T08:37:17.201Z,1024.8
2018-02-25T08:38:18.601Z,1024.8
2018-02-25T08:39:20.086Z,1024.9
2018-02-25T08:40:21.490Z,1024.8
2018-02-25T08:41:22.964Z,1024.8
2018-02-25T08:42:24.366Z,1024.9
2018-02-25T08:43:25.765Z,1024.9
2018-02-25T08:44:27.282Z,1024.9
2018-02-25T08:45:28.677Z,1025.0
2018-02-25T08:46:30.076Z,1024.9
2018-02-25T08:47:31.603Z,1024.9
2018-02-25T08:48:33.000Z,1025.0
2018-02-25T08:49:34.481Z,1025.0
2018-02-25T08:50:35.882Z,1025.0
2018-02-25T08:51:37.362Z,1025.0
2018-02-25T08:52:38.764Z,1025.0
2018-02-25T08:53:40.244Z,1024.8
2018-02-25T08:54:41.646Z,1025.1
2018-02-25T08:55:43.126Z,1025.1
2018-02-25T08:56:44.527Z,1025.1
2018-02-25T08:57:45.929Z,1025.2
2018-02-25T08:58:47.465Z,1025.2
2018-02-25T08:59:48.860Z,1025.2
2018-02-25T09:00:50.261Z,1025.2
2018-02-25T09:01:51.767Z,1025.4
2018-02-25T09:02:53.171Z,1025.2
2018-02-25T09:03:54.572Z,1025.3
2018-02-25T09:04:56.097Z,1025.4
2018-02-25T09:05:57.497Z,1025.3
2018-02-25T09:06:58.911Z,1025.3
2018-02-25T09:08:00.409Z,1025.3
2018-02-25T09:09:01.807Z,1025.2
2018-02-25T09:10:03.299Z,1025.3
2018-02-25T09:11:04.727Z,1025.3
2018-02-25T09:12:06.376Z,1025.4
2018-02-25T09:13:07.786Z,1025.6
2018-02-25T09:14:09.239Z,1025.5
2018-02-25T09:15:10.717Z,1025.5
2018-02-25T09:16:12.106Z,1025.6
2018-02-25T09:17:13.514Z,1025.6
2018-02-25T09:18:15.060Z,1025.6
2018-02-25T09:19:16.429Z,1025.8
2018-02-25T09:20:17.958Z,1025.8
2018-02-25T09:21:19.325Z,1025.9
2018-02-25T09:22:20.785Z,1026.0
2018-02-25T09:23:22.191Z,1026.0
2018-02-25T09:24:23.665Z,1025.9
2018-02-25T09:25:25.084Z,1026.0
2018-02-25T09:26:26.543Z,1025.9
2018-02-25T09:27:27.952Z,1025.8
2018-02-25T09:28:29.433Z,1026.1
2018-02-25T09:29:30.859Z,1026.0
2018-02-25T09:30:32.297Z,1026.0
2018-02-25T09:31:33.749Z,1026.0
2018-02-25T09:32:35.156Z,1025.8
2018-02-25T09:33:36.584Z,1025.7
2018-02-25T09:34:38.066Z,1025.6
2018-02-25T09:35:39.475Z,1025.5
2018-02-25T09:36:40.884Z,1025.7
2018-02-25T09:37:42.388Z,1026.1
2018-02-25T09:38:43.795Z,1025.8
2018-02-25T09:39:45.269Z,1025.7
2018-02-25T09:40:46.696Z,1025.6
2018-02-25T09:41:48.354Z,1025.4
2018-02-25T09:42:49.767Z,1025.5
2018-02-25T09:43:51.174Z,1025.6
2018-02-25T09:44:52.674Z,1025.4
2018-02-25T09:45:54.088Z,1025.3
2018-02-25T09:46:55.491Z,1025.2
2018-02-25T09:47:56.993Z,1025.2
2018-02-25T09:48:58.409Z,1025.3
2018-02-25T09:49:59.813Z,1025.5
2018-02-25T09:51:01.320Z,1025.5
2018-02-25T09:52:02.718Z,1025.3
2018-02-25T09:53:04.133Z,1025.3
2018-02-25T09:54:05.638Z,1025.8
2018-02-25T09:55:07.046Z,1025.7
2018-02-25T09:56:08.519Z,1025.8
2018-02-25T09:57:09.926Z,1025.9
2018-02-25T09:58:11.400Z,1026.1
2018-02-25T09:59:12.809Z,1025.9
2018-02-25T10:00:14.283Z,1025.8
2018-02-25T10:01:15.693Z,1025.5
2018-02-25T10:02:17.164Z,1025.4
2018-02-25T10:03:18.564Z,1025.5
2018-02-25T10:04:20.039Z,1025.5
2018-02-25T10:05:21.446Z,1025.4
2018-02-25T10:06:22.921Z,1025.3
2018-02-25T10:07:24.332Z,1025.2
2018-02-25T10:08:25.803Z,1025.3
2018-02-25T10:09:27.220Z,1025.4
2018-02-25T10:10:28.619Z,1025.2
2018-02-25T10:11:30.124Z,1025.4
2018-02-25T10:12:31.528Z,1025.2
2018-02-25T10:13:32.944Z,1025.1
2018-02-25T10:14:34.446Z,1025.3
2018-02-25T10:15:35.890Z,1025.3
2018-02-25T10:16:37.298Z,1025.3
2018-02-25T10:17:38.799Z,1025.5
2018-02-25T10:18:40.218Z,1025.5
2018-02-25T10:19:41.606Z,1025.5
2018-02-25T10:20:43.088Z,1025.5
2018-02-25T10:21:44.503Z,1025.6
2018-02-25T10:22:46.588Z,1025.6
2018-02-25T10:23:47.988Z,1025.7
2018-02-25T10:24:49.468Z,1025.9
2018-02-25T10:25:50.880Z,1026.0
2018-02-25T10:26:52.349Z,1026.4
2018-02-25T10:27:53.750Z,1026.5
2018-02-25T10:28:55.227Z,1026.8
2018-02-25T10:29:57.022Z,1027.3
2018-02-25T10:30:58.435Z,1026.9
2018-02-25T10:31:59.957Z,1026.1
2018-02-25T10:33:01.362Z,1025.8
2018-02-25T10:34:02.773Z,1025.9
2018-02-25T10:35:04.276Z,1025.7
2018-02-25T10:36:05.791Z,1025.8
2018-02-25T10:37:07.220Z,1025.6
2018-02-25T10:38:08.803Z,1025.6
2018-02-25T10:39:10.210Z,1025.6
2018-02-25T10:40:11.618Z,1025.6
2018-02-25T10:41:13.124Z,1025.7
2018-02-25T10:42:14.573Z,1025.7
2018-02-25T10:43:15.985Z,1025.6
2018-02-25T10:44:22.221Z,1025.6
2018-02-25T10:45:23.638Z,1025.6
2018-02-25T10:46:25.043Z,1025.7
2018-02-25T10:47:26.682Z,1025.8
2018-02-25T10:48:28.089Z,1025.6
2018-02-25T10:49:29.501Z,1025.6
2018-02-25T10:50:31.015Z,1025.6
2018-02-25T10:51:32.412Z,1025.6
2018-02-25T10:52:33.825Z,1025.6
2018-02-25T10:53:35.325Z,1025.5
2018-02-25T10:54:36.732Z,1025.6
2018-02-25T10:55:38.141Z,1025.5
2018-02-25T10:56:39.646Z,1025.4
2018-02-25T10:57:41.072Z,1025.3
2018-02-25T10:58:42.484Z,1025.3
2018-02-25T10:59:43.966Z,1025.3
2018-02-25T11:00:45.372Z,1025.3
2018-02-25T11:01:46.872Z,1025.2
2018-02-25T11:02:48.287Z,1025.1
2018-02-25T11:03:49.948Z,1025.0
2018-02-25T11:04:51.382Z,1025.0
2018-02-25T11:05:52.791Z,1025.1
2018-02-25T11:06:54.253Z,1025.0
2018-02-25T11:07:55.661Z,1024.9
2018-02-25T11:08:57.068Z,1024.9
2018-02-25T11:09:58.635Z,1024.8
2018-02-25T11:10:59.981Z,1024.8
2018-02-25T11:12:01.388Z,1024.8
2018-02-25T11:13:02.898Z,1024.7
2018-02-25T11:14:04.305Z,1024.6
2018-02-25T11:15:05.747Z,1024.6
2018-02-25T11:16:07.219Z,1024.6
2018-02-25T11:17:08.622Z,1024.6
2018-02-25T11:18:10.098Z,1024.7
2018-02-25T11:19:11.504Z,1024.5
2018-02-25T11:20:12.916Z,1024.5
2018-02-25T11:21:14.626Z,1024.5
2018-02-25T11:22:16.027Z,1024.4
2018-02-25T11:23:17.431Z,1024.5
2018-02-25T11:24:18.946Z,1024.5
2018-02-25T11:25:20.354Z,1024.5
2018-02-25T11:26:21.827Z,1024.4
2018-02-25T11:27:23.234Z,1024.4
2018-02-25T11:28:24.713Z,1024.3
2018-02-25T11:29:26.113Z,1024.3
2018-02-25T11:30:27.510Z,1024.5
2018-02-25T11:31:29.074Z,1024.3
2018-02-25T11:32:30.435Z,1024.3
2018-02-25T11:33:31.837Z,1024.4
2018-02-25T11:34:33.349Z,1024.5
2018-02-25T11:35:34.753Z,1024.3
2018-02-25T11:36:36.285Z,1024.3
2018-02-25T11:37:37.632Z,1024.3
2018-02-25T11:38:39.108Z,1024.3
2018-02-25T11:39:40.517Z,1024.2
2018-02-25T11:40:41.920Z,1024.3
2018-02-25T11:41:43.432Z,1024.2
2018-02-25T11:42:44.838Z,1024.2
2018-02-25T11:43:46.248Z,1024.2
2018-02-25T11:44:47.754Z,1024.1
2018-02-25T11:45:49.157Z,1024.1
2018-02-25T11:46:50.634Z,1024.1
2018-02-25T11:47:52.037Z,1024.1
2018-02-25T11:48:53.541Z,1024.1
2018-02-25T11:49:54.950Z,1024.0
2018-02-25T11:51:07.730Z,1024.1
2018-02-25T11:52:09.135Z,1024.0
2018-02-25T11:53:10.796Z,1024.0
2018-02-25T11:54:12.235Z,1024.0
2018-02-25T11:55:13.805Z,1024.0
2018-02-25T11:56:15.272Z,1023.9
2018-02-25T11:57:16.675Z,1023.9
2018-02-25T11:58:18.082Z,1023.9
2018-02-25T11:59:19.591Z,1023.8
2018-02-25T12:00:20.996Z,1023.9
2018-02-25T12:01:22.398Z,1024.0
2018-02-25T12:02:23.916Z,1023.9
2018-02-25T12:03:25.657Z,1023.8
2018-02-25T12:04:27.416Z,1023.8
2018-02-25T12:05:28.855Z,1023.9
2018-02-25T12:06:30.254Z,1023.9
2018-02-25T12:07:31.656Z,1023.9
2018-02-25T12:08:33.196Z,1023.9
2018-02-25T12:09:34.599Z,1023.8
2018-02-25T12:10:36.002Z,1023.8
2018-02-25T12:11:37.498Z,1023.8
2018-02-25T12:12:38.895Z,1023.8
2018-02-25T12:13:40.375Z,1023.8
2018-02-25T12:14:41.777Z,1023.8
2018-02-25T12:15:43.263Z,1023.8
2018-02-25T12:16:44.662Z,1023.8
2018-02-25T12:17:46.139Z,1023.9
2018-02-25T12:18:48.271Z,1023.8
2018-02-25T12:19:49.839Z,1023.9
2018-02-25T12:20:51.238Z,1023.8
2018-02-25T12:21:52.702Z,1024.0
2018-02-25T12:22:54.157Z,1023.8
2018-02-25T12:23:55.563Z,1023.8
2018-02-25T12:24:56.962Z,1023.8
2018-02-25T12:25:58.480Z,1023.8
2018-02-25T12:26:59.884Z,1023.7
2018-02-25T12:28:01.376Z,1023.8
2018-02-25T12:29:02.780Z,1023.8
2018-02-25T12:30:04.281Z,1023.7
2018-02-25T12:31:05.689Z,1023.7
2018-02-25T12:32:07.630Z,1023.9
2018-02-25T12:33:09.767Z,1023.8
2018-02-25T12:34:11.501Z,1023.6
2018-02-25T12:35:12.911Z,1023.7
2018-02-25T12:36:14.554Z,1023.6
2018-02-25T12:37:15.961Z,1023.7
2018-02-25T12:38:17.436Z,1023.7
2018-02-25T12:39:19.047Z,1023.6
2018-02-25T12:40:20.469Z,1023.7
2018-02-25T12:41:21.918Z,1023.7
2018-02-25T12:42:23.398Z,1023.6
2018-02-25T12:43:24.798Z,1023.6
2018-02-25T12:44:26.262Z,1023.6
2018-02-25T12:45:27.659Z,1023.5
2018-02-25T12:46:29.062Z,1023.6
2018-02-25T12:47:30.569Z,1023.5
2018-02-25T12:48:31.970Z,1023.6
2018-02-25T12:49:33.366Z,1023.5
2018-02-25T12:50:35.478Z,1023.5
2018-02-25T12:51:36.888Z,1023.5
2018-02-25T12:52:38.415Z,1023.5
2018-02-25T12:54:31.364Z,1023.6
2018-02-25T12:55:32.756Z,1023.4
2018-02-25T12:56:54.412Z,1023.5
2018-02-25T12:57:55.809Z,1023.5
2018-02-25T12:59:17.777Z,1023.4
2018-02-25T13:00:19.173Z,1023.5
2018-02-25T13:01:40.932Z,1023.4
2018-02-25T13:02:42.328Z,1023.4
2018-02-25T13:04:05.678Z,1023.4
2018-02-25T13:05:07.350Z,1023.5
2018-02-25T13:06:29.292Z,1023.4
2018-02-25T13:07:30.697Z,1023.4
2018-02-25T13:08:52.832Z,1023.4
2018-02-25T13:09:54.235Z,1023.4
2018-02-25T13:11:16.221Z,1023.4
2018-02-25T13:12:17.622Z,1023.3
2018-02-25T13:13:39.374Z,1023.4
2018-02-25T13:14:40.780Z,1023.4
2018-02-25T13:16:03.118Z,1023.4
2018-02-25T13:17:04.512Z,1023.3
2018-02-25T13:18:26.302Z,1023.4
2018-02-25T13:19:27.700Z,1023.2
2018-02-25T13:20:49.421Z,1023.4
2018-02-25T13:21:50.819Z,1023.3
2018-02-25T13:25:10.990Z,1023.2
2018-02-25T13:26:12.509Z,1023.2
2018-02-25T13:28:15.268Z,1023.1
2018-02-25T13:29:16.744Z,1023.1
2018-02-25T13:30:38.670Z,1023.0
2018-02-25T13:31:40.068Z,1023.1
2018-02-25T13:32:41.468Z,1023.2
2018-02-25T13:33:42.965Z,1023.0
2018-02-25T13:34:44.370Z,1022.9
2018-02-25T13:35:45.859Z,1023.1
2018-02-25T13:36:47.272Z,1023.0
2018-02-25T13:37:48.675Z,1023.1
2018-02-25T13:38:50.553Z,1023.1
2018-02-25T13:39:51.963Z,1023.1
2018-02-25T13:40:53.365Z,1023.1
2018-02-25T13:41:54.896Z,1023.1
2018-02-25T13:42:56.299Z,1023.0
2018-02-25T13:43:57.781Z,1023.0
2018-02-25T13:44:59.190Z,1022.9
2018-02-25T13:46:00.659Z,1023.0
2018-02-25T13:47:02.057Z,1022.9
2018-02-25T13:48:03.455Z,1022.9
2018-02-25T13:49:04.979Z,1023.1
2018-02-25T13:50:06.379Z,1023.0
2018-02-25T13:51:07.777Z,1022.9
2018-02-25T13:52:09.301Z,1022.9
2018-02-25T13:53:10.705Z,1022.9
2018-02-25T13:54:12.183Z,1022.9
2018-02-25T13:55:13.588Z,1022.9
2018-02-25T13:56:15.064Z,1022.9
2018-02-25T13:57:16.463Z,1022.9
2018-02-25T13:58:17.863Z,1022.8
2018-02-25T13:59:19.383Z,1022.8
2018-02-25T14:00:20.781Z,1022.8
2018-02-25T14:01:22.181Z,1022.8
2018-02-25T14:02:23.713Z,1022.7
2018-02-25T14:03:25.105Z,1022.7
2018-02-25T14:04:26.588Z,1022.7
2018-02-25T14:05:27.982Z,1022.7
2018-02-25T14:06:29.471Z,1022.7
2018-02-25T14:07:30.867Z,1022.7
2018-02-25T14:08:32.261Z,1022.7
2018-02-25T14:09:33.790Z,1022.7
2018-02-25T14:10:35.189Z,1022.6
2018-02-25T14:11:36.599Z,1022.7
2018-02-25T14:12:38.108Z,1022.7
2018-02-25T14:13:39.508Z,1022.7
2018-02-25T14:14:40.912Z,1022.7
2018-02-25T14:15:42.430Z,1022.8
2018-02-25T14:16:43.825Z,1022.7
2018-02-25T14:17:45.232Z,1022.9
2018-02-25T14:18:46.755Z,1022.8
2018-02-25T14:19:48.153Z,1022.8
2018-02-25T14:20:49.634Z,1022.7
2018-02-25T14:21:51.033Z,1022.8
2018-02-25T14:22:52.431Z,1022.8
2018-02-25T14:23:53.954Z,1022.8
2018-02-25T14:24:55.352Z,1022.8
2018-02-25T14:25:56.781Z,1022.8
2018-02-25T14:26:58.273Z,1022.8
2018-02-25T14:27:59.677Z,1022.8
2018-02-25T14:29:01.149Z,1022.8
2018-02-25T14:30:02.555Z,1022.7
2018-02-25T14:31:04.036Z,1022.8
2018-02-25T14:32:05.436Z,1022.8
2018-02-25T14:33:06.836Z,1022.7
2018-02-25T14:34:08.360Z,1022.8
2018-02-25T14:35:09.776Z,1022.8
2018-02-25T14:36:11.161Z,1022.6
2018-02-25T14:37:12.679Z,1022.7
2018-02-25T14:38:14.082Z,1022.7
2018-02-25T14:39:15.558Z,1022.7
2018-02-25T14:40:16.962Z,1022.7
2018-02-25T14:41:18.441Z,1022.6
2018-02-25T14:42:19.843Z,1022.7
2018-02-25T14:43:21.320Z,1022.6
2018-02-25T14:44:22.718Z,1022.7
2018-02-25T14:45:24.201Z,1022.6
2018-02-25T14:46:25.602Z,1022.8
2018-02-25T14:47:27.104Z,1022.7
2018-02-25T14:48:28.500Z,1022.7
2018-02-25T14:49:29.962Z,1022.7
2018-02-25T14:50:31.361Z,1022.7
2018-02-25T14:51:32.893Z,1022.8
2018-02-25T14:52:34.277Z,1022.7
2018-02-25T14:53:35.679Z,1022.9
2018-02-25T14:54:37.169Z,1022.7
2018-02-25T14:55:38.565Z,1022.7
2018-02-25T14:56:39.965Z,1022.8
2018-02-25T14:57:41.486Z,1022.7
2018-02-25T14:58:42.884Z,1022.8
2018-02-25T14:59:44.284Z,1022.7
2018-02-25T15:00:45.806Z,1022.7
2018-02-25T15:01:47.206Z,1022.8
2018-02-25T15:02:48.606Z,1022.8
2018-02-25T15:03:50.127Z,1022.8
2018-02-25T15:04:51.526Z,1022.7
2018-02-25T15:05:53.007Z,1022.7
2018-02-25T15:06:54.830Z,1022.7
2018-02-25T15:07:56.231Z,1022.8
2018-02-25T15:08:57.740Z,1022.7
2018-02-25T15:09:59.522Z,1022.8
2018-02-25T15:11:01.032Z,1022.8
2018-02-25T15:12:02.427Z,1022.9
2018-02-25T15:13:03.911Z,1022.8
2018-02-25T15:14:05.308Z,1022.7
2018-02-25T15:15:06.795Z,1022.8
2018-02-25T15:16:08.194Z,1022.8
2018-02-25T15:17:09.674Z,1022.7
2018-02-25T15:18:11.087Z,1022.7
2018-02-25T15:19:12.478Z,1022.7
2018-02-25T15:20:13.994Z,1022.7
2018-02-25T15:21:15.393Z,1022.7
2018-02-25T15:22:16.790Z,1022.7
2018-02-25T15:23:18.314Z,1022.7
2018-02-25T15:24:19.714Z,1022.7
2018-02-25T15:25:21.195Z,1022.6
2018-02-25T15:26:22.592Z,1022.6
2018-02-25T15:27:24.083Z,1022.5
2018-02-25T15:28:25.477Z,1022.6
2018-02-25T15:29:26.957Z,1022.6
2018-02-25T15:30:28.356Z,1022.7
2018-02-25T15:31:29.844Z,1022.7
2018-02-25T15:32:31.244Z,1022.7
2018-02-25T15:33:32.717Z,1022.7
2018-02-25T15:34:34.123Z,1022.7
2018-02-25T15:35:35.601Z,1022.7
2018-02-25T15:36:37.000Z,1022.7
2018-02-25T15:37:38.481Z,1022.7
2018-02-25T15:38:39.882Z,1022.6
2018-02-25T15:39:41.363Z,1022.8
2018-02-25T15:40:42.794Z,1022.7
2018-02-25T15:41:44.243Z,1022.7
2018-02-25T15:42:45.638Z,1022.7
2018-02-25T15:43:47.127Z,1022.7
2018-02-25T15:44:48.526Z,1022.6
2018-02-25T15:45:50.002Z,1022.7
2018-02-25T15:46:51.406Z,1022.7
2018-02-25T15:47:52.901Z,1022.8
2018-02-25T15:48:54.303Z,1022.7
2018-02-25T15:49:55.765Z,1022.8
2018-02-25T15:50:57.164Z,1022.8
2018-02-25T15:51:58.643Z,1022.8
2018-02-25T15:53:00.043Z,1022.8
2018-02-25T15:54:01.525Z,1022.9
2018-02-25T15:55:02.923Z,1022.7
2018-02-25T15:56:04.404Z,1022.8
2018-02-25T15:57:05.803Z,1022.7
2018-02-25T15:58:07.293Z,1022.8
2018-02-25T15:59:08.695Z,1022.7
2018-02-25T16:00:10.169Z,1022.7
2018-02-25T16:01:11.569Z,1022.7
2018-02-25T16:02:13.049Z,1022.6
2018-02-25T16:03:14.444Z,1022.8
2018-02-25T16:04:15.927Z,1022.7
2018-02-25T16:05:17.380Z,1022.8
2018-02-25T16:06:18.814Z,1022.7
2018-02-25T16:07:20.219Z,1022.7
2018-02-25T16:08:21.697Z,1022.7
2018-02-25T16:09:23.089Z,1022.8
2018-02-25T16:10:24.600Z,1022.8
2018-02-25T16:11:26.018Z,1022.9
2018-02-25T16:12:27.460Z,1022.7
2018-02-25T16:13:28.853Z,1022.6
2018-02-25T16:14:30.350Z,1022.7
2018-02-25T16:15:31.752Z,1022.7
2018-02-25T16:16:33.215Z,1022.6
2018-02-25T16:17:34.656Z,1022.6
2018-02-25T16:18:36.093Z,1022.7
2018-02-25T16:19:37.493Z,1022.6
2018-02-25T16:20:38.975Z,1022.7
2018-02-25T16:21:40.375Z,1022.8
2018-02-25T16:22:41.857Z,1022.7
2018-02-25T16:23:43.287Z,1022.7
2018-02-25T16:24:44.652Z,1022.8
2018-02-25T16:25:46.180Z,1022.8
2018-02-25T16:26:47.578Z,1022.7
2018-02-25T16:27:48.978Z,1022.7
2018-02-25T16:28:50.501Z,1022.7
2018-02-25T16:29:51.901Z,1022.7
2018-02-25T16:30:53.300Z,1022.7
2018-02-25T16:31:54.826Z,1022.6
2018-02-25T16:32:56.219Z,1022.7
2018-02-25T16:33:57.620Z,1022.8
2018-02-25T16:34:59.157Z,1022.8
2018-02-25T16:36:00.567Z,1022.8
2018-02-25T16:37:02.072Z,1022.9
2018-02-25T16:38:03.531Z,1022.8
2018-02-25T16:39:04.928Z,1023.0
2018-02-25T16:40:06.547Z,1022.9
2018-02-25T16:41:07.947Z,1022.8
2018-02-25T16:42:09.349Z,1022.8
2018-02-25T16:43:10.874Z,1022.8
2018-02-25T16:44:12.272Z,1022.8
2018-02-25T16:45:13.748Z,1022.8
2018-02-25T16:46:15.147Z,1022.7
2018-02-25T16:47:16.633Z,1022.9
2018-02-25T16:48:18.029Z,1022.9
2018-02-25T16:49:19.905Z,1022.9
2018-02-25T16:50:21.364Z,1023.0
2018-02-25T16:51:22.765Z,1022.9
2018-02-25T16:52:24.163Z,1022.8
2018-02-25T16:53:25.682Z,1022.8
2018-02-25T16:54:27.081Z,1022.9
2018-02-25T16:55:28.563Z,1022.9
2018-02-25T16:56:29.994Z,1022.9
2018-02-25T16:57:31.449Z,1023.0
2018-02-25T16:58:32.844Z,1022.9
2018-02-25T16:59:34.240Z,1023.0
2018-02-25T17:00:35.763Z,1023.0
2018-02-25T17:01:37.162Z,1023.1
2018-02-25T17:02:38.579Z,1023.1
2018-02-25T17:03:40.092Z,1023.0
2018-02-25T17:04:41.493Z,1023.0
2018-02-25T17:05:42.894Z,1023.1
2018-02-25T17:06:44.420Z,1023.0
2018-02-25T17:07:45.832Z,1023.0
2018-02-25T17:08:47.233Z,1023.0
2018-02-25T17:09:48.731Z,1023.1
2018-02-25T17:10:50.135Z,1023.0
2018-02-25T17:11:51.613Z,1023.1
2018-02-25T17:12:53.017Z,1023.1
2018-02-25T17:13:54.498Z,1023.0
2018-02-25T17:14:55.893Z,1023.0
2018-02-25T17:15:57.376Z,1023.1
2018-02-25T17:16:58.771Z,1023.1
2018-02-25T17:18:00.355Z,1023.2
2018-02-25T17:19:01.756Z,1023.2
2018-02-25T17:20:03.156Z,1023.1
2018-02-25T17:21:04.575Z,1023.1
2018-02-25T17:22:05.974Z,1023.2
2018-02-25T17:23:07.381Z,1023.2
2018-02-25T17:24:08.900Z,1023.2
2018-02-25T17:25:10.293Z,1023.3
2018-02-25T17:26:11.691Z,1023.2
2018-02-25T17:27:13.219Z,1023.2
2018-02-25T17:28:14.616Z,1023.2
2018-02-25T17:29:16.026Z,1023.2
2018-02-25T17:30:17.539Z,1023.2
2018-02-25T17:31:18.938Z,1023.2
2018-02-25T17:32:20.467Z,1023.3
2018-02-25T17:33:21.828Z,1023.2
2018-02-25T17:34:23.339Z,1023.2
2018-02-25T17:35:24.701Z,1023.3
2018-02-25T17:36:26.284Z,1023.2
2018-02-25T17:37:27.681Z,1023.2
2018-02-25T17:38:29.267Z,1023.2
2018-02-25T17:39:30.666Z,1023.2
2018-02-25T17:40:32.147Z,1023.2
2018-02-25T17:41:33.550Z,1023.2
2018-02-25T17:42:35.029Z,1023.2
2018-02-25T17:43:36.426Z,1023.3
2018-02-25T17:44:37.931Z,1023.3
2018-02-25T17:45:39.327Z,1023.3
2018-02-25T17:46:40.792Z,1023.3
2018-02-25T17:47:42.205Z,1023.3
2018-02-25T17:48:43.772Z,1023.3
2018-02-25T17:49:45.200Z,1023.3
2018-02-25T17:50:46.598Z,1023.3
2018-02-25T17:51:48.196Z,1023.4
2018-02-25T17:52:49.597Z,1023.4
2018-02-25T17:53:50.997Z,1023.3
2018-02-25T17:54:52.518Z,1023.3
2018-02-25T17:55:53.963Z,1023.3
2018-02-25T17:56:55.400Z,1023.3
2018-02-25T17:57:56.800Z,1023.3
2018-02-25T17:58:58.376Z,1023.3
2018-02-25T17:59:59.779Z,1023.3
2018-02-25T18:01:01.468Z,1023.2
2018-02-25T18:02:02.878Z,1023.2
2018-02-25T18:03:04.554Z,1023.4
2018-02-25T18:04:05.990Z,1023.3
2018-02-25T18:05:07.386Z,1023.3
2018-02-25T18:06:09.080Z,1023.4
2018-02-25T18:07:10.477Z,1023.3
2018-02-25T18:08:11.876Z,1023.3
2018-02-25T18:09:13.401Z,1023.3
2018-02-25T18:10:14.802Z,1023.3
2018-02-25T18:11:16.201Z,1023.3
2018-02-25T18:12:17.721Z,1023.3
2018-02-25T18:13:19.138Z,1023.3
2018-02-25T18:14:20.545Z,1023.3
2018-02-25T18:15:22.249Z,1023.4
2018-02-25T18:16:23.650Z,1023.3
2018-02-25T18:17:25.090Z,1023.3
2018-02-25T18:18:26.808Z,1023.3
2018-02-25T18:19:32.977Z,1023.2
2018-02-25T18:20:35.552Z,1023.3
2018-02-25T18:21:37.248Z,1023.2
2018-02-25T18:22:39.063Z,1023.2
2018-02-25T18:23:40.735Z,1023.2
2018-02-25T18:24:42.134Z,1023.3
2018-02-25T18:25:43.828Z,1023.3
2018-02-25T18:26:45.221Z,1023.3
2018-02-25T18:27:46.904Z,1023.3
2018-02-25T18:28:48.306Z,1023.3
2018-02-25T18:29:49.994Z,1023.4
2018-02-25T18:30:51.391Z,1023.3
2018-02-25T18:31:52.829Z,1023.3
2018-02-25T18:32:54.549Z,1023.3
2018-02-25T18:33:55.949Z,1023.3
2018-02-25T18:34:57.392Z,1023.3
2018-02-25T18:35:59.068Z,1023.3
2018-02-25T18:37:00.439Z,1023.3
2018-02-25T18:38:01.837Z,1023.4
2018-02-25T18:39:03.366Z,1023.3
2018-02-25T18:40:04.765Z,1023.4
2018-02-25T18:41:06.159Z,1023.3
2018-02-25T18:42:07.688Z,1023.4
2018-02-25T18:43:09.084Z,1023.4
2018-02-25T18:44:10.770Z,1023.3
2018-02-25T18:45:12.928Z,1023.4
2018-02-25T18:46:14.325Z,1023.4
2018-02-25T18:47:15.916Z,1023.4
2018-02-25T18:48:17.309Z,1023.4
2018-02-25T18:49:18.707Z,1023.5
2018-02-25T18:50:20.232Z,1023.4
2018-02-25T18:51:21.632Z,1023.4
2018-02-25T18:52:23.031Z,1023.4
2018-02-25T18:53:24.554Z,1023.4
2018-02-25T18:54:25.951Z,1023.3
2018-02-25T18:55:27.348Z,1023.5
2018-02-25T18:56:28.874Z,1023.4
2018-02-25T18:57:30.272Z,1023.4
2018-02-25T18:58:31.961Z,1023.5
2018-02-25T18:59:33.368Z,1023.5
2018-02-25T19:00:35.044Z,1023.4
2018-02-25T19:01:36.822Z,1023.4
2018-02-25T19:02:38.338Z,1023.5
2018-02-25T19:03:39.736Z,1023.5
2018-02-25T19:04:41.823Z,1023.4
2018-02-25T19:05:43.608Z,1023.5
2018-02-25T19:06:45.026Z,1023.5
2018-02-25T19:07:46.566Z,1023.6
2018-02-25T19:08:47.963Z,1023.5
2018-02-25T19:09:49.361Z,1023.5
2018-02-25T19:10:50.883Z,1023.4
2018-02-25T19:11:52.279Z,1023.5
2018-02-25T19:12:53.677Z,1023.5
2018-02-25T19:13:55.211Z,1023.5
2018-02-25T19:14:56.624Z,1023.4
2018-02-25T19:15:58.397Z,1023.5
2018-02-25T19:16:59.936Z,1023.5
2018-02-25T19:18:01.333Z,1023.5
2018-02-25T19:19:03.022Z,1023.5
2018-02-25T19:20:04.422Z,1023.5
2018-02-25T19:21:06.106Z,1023.5
2018-02-25T19:22:07.508Z,1023.6
2018-02-25T19:23:09.196Z,1023.5
2018-02-25T19:24:10.588Z,1023.6
2018-02-25T19:25:12.278Z,1023.6
2018-02-25T19:26:13.676Z,1023.6
2018-02-25T19:27:15.364Z,1023.5
2018-02-25T19:28:16.767Z,1023.6
2018-02-25T19:29:18.455Z,1023.6
2018-02-25T19:30:19.854Z,1023.5
2018-02-25T19:31:21.256Z,1023.6
2018-02-25T19:32:22.783Z,1023.5
2018-02-25T19:33:24.561Z,1023.5
2018-02-25T19:34:25.963Z,1023.5
2018-02-25T19:35:27.508Z,1023.6
2018-02-25T19:36:28.905Z,1023.5
2018-02-25T19:37:30.301Z,1023.5
2018-02-25T19:38:31.823Z,1023.6
2018-02-25T19:39:33.220Z,1023.5
2018-02-25T19:40:34.618Z,1023.5
2018-02-25T19:41:36.145Z,1023.6
2018-02-25T19:42:37.543Z,1023.6
2018-02-25T19:43:38.944Z,1023.5
2018-02-25T19:44:40.466Z,1023.6
2018-02-25T19:45:41.861Z,1023.6
2018-02-25T19:46:43.262Z,1023.7
2018-02-25T19:47:44.794Z,1023.6
2018-02-25T19:48:46.193Z,1023.7
2018-02-25T19:49:47.590Z,1023.6
2018-02-25T19:50:49.107Z,1023.6
2018-02-25T19:51:50.527Z,1023.6
2018-02-25T19:52:51.922Z,1023.7
2018-02-25T19:53:53.635Z,1023.7
2018-02-25T19:54:55.417Z,1023.6
2018-02-25T19:55:56.809Z,1023.6
2018-02-25T19:56:58.367Z,1023.6
2018-02-25T19:57:59.768Z,1023.6
2018-02-25T19:59:01.461Z,1023.6
2018-02-25T20:00:02.856Z,1023.6
2018-02-25T20:01:04.537Z,1023.6
2018-02-25T20:02:05.939Z,1023.6
2018-02-25T20:03:07.622Z,1023.7
2018-02-25T20:04:09.024Z,1023.6
2018-02-25T20:05:11.214Z,1023.6
2018-02-25T20:06:12.605Z,1023.7
2018-02-25T20:07:14.203Z,1023.7
2018-02-25T20:08:15.601Z,1023.7
2018-02-25T20:09:17.293Z,1023.6
2018-02-25T20:10:18.690Z,1023.7
2018-02-25T20:11:20.118Z,1023.7
2018-02-25T20:12:21.816Z,1023.7
2018-02-25T20:13:23.214Z,1023.8
2018-02-25T20:14:24.611Z,1023.7
2018-02-25T20:15:26.140Z,1023.7
2018-02-25T20:16:27.536Z,1023.7
2018-02-25T20:17:28.937Z,1023.8
2018-02-25T20:18:30.458Z,1023.6
2018-02-25T20:19:31.856Z,1023.7
2018-02-25T20:20:33.257Z,1023.7
2018-02-25T20:21:34.786Z,1023.6
2018-02-25T20:22:36.177Z,1023.7
2018-02-25T20:23:37.574Z,1023.6
2018-02-25T20:24:39.104Z,1023.7
2018-02-25T20:25:40.896Z,1023.7
2018-02-25T20:26:42.296Z,1023.7
2018-02-25T20:27:43.835Z,1023.7
2018-02-25T20:28:45.234Z,1023.7
2018-02-25T20:29:46.916Z,1023.8
2018-02-25T20:30:48.318Z,1023.7
2018-02-25T20:31:50.005Z,1023.7
2018-02-25T20:32:51.404Z,1023.8
2018-02-25T20:33:53.089Z,1023.8
2018-02-25T20:34:54.485Z,1023.8
2018-02-25T20:35:56.175Z,1023.7
2018-02-25T20:36:57.575Z,1023.8
2018-02-25T20:37:58.971Z,1023.7
2018-02-25T20:39:00.494Z,1023.8
2018-02-25T20:40:01.947Z,1023.8
2018-02-25T20:41:03.305Z,1023.7
2018-02-25T20:42:04.821Z,1023.8
2018-02-25T20:43:06.216Z,1023.8
2018-02-25T20:44:07.619Z,1023.8
2018-02-25T20:45:09.140Z,1023.8
2018-02-25T20:46:10.536Z,1023.8
2018-02-25T20:47:11.938Z,1023.8
2018-02-25T20:48:13.459Z,1023.8
2018-02-25T20:49:14.854Z,1023.9
2018-02-25T20:50:16.542Z,1023.8
2018-02-25T20:51:17.941Z,1023.8
2018-02-25T20:52:19.632Z,1023.8
2018-02-25T20:53:21.028Z,1023.8
2018-02-25T20:54:22.718Z,1023.8
2018-02-25T20:55:24.124Z,1023.8
2018-02-25T20:56:25.806Z,1023.8
2018-02-25T20:57:27.198Z,1023.8
2018-02-25T20:58:28.895Z,1023.8
2018-02-25T20:59:30.289Z,1023.9
2018-02-25T21:00:31.970Z,1023.9
2018-02-25T21:01:33.369Z,1023.8
2018-02-25T21:02:35.059Z,1023.9
2018-02-25T21:03:36.452Z,1023.9
2018-02-25T21:04:38.153Z,1023.8
2018-02-25T21:05:39.553Z,1023.8
2018-02-25T21:06:41.231Z,1023.8
2018-02-25T21:07:43.007Z,1023.8
2018-02-25T21:08:44.524Z,1023.9
2018-02-25T21:09:45.922Z,1023.8
2018-02-25T21:10:47.606Z,1023.9
2018-02-25T21:11:49.002Z,1023.9
2018-02-25T21:12:50.401Z,1023.8
2018-02-25T21:13:51.926Z,1023.8
2018-02-25T21:14:53.326Z,1023.8
2018-02-25T21:15:54.723Z,1023.9
2018-02-25T21:16:56.247Z,1023.9
2018-02-25T21:17:57.646Z,1023.9